Ocean Stellar — S6EP2 — position and weather

sailwx.info

Track history (hours):
 
Tides and Currents Weather Stations Pressure Air Temp Water Temp Dewpoint Dewpoint Depression Visibility Wind Speed Wind Dir Waves Ship Positions

Ocean Stellar

Last reported at 2018-Jan-19 14:30 UTC. Time now 2018-Jan-19 15:20 UTC.
Position N 01°12' E 103°40'.

Length 189 m; draft 8.2 m.

Type: Tanker. MMSI: 563476000.

Date/timePositionNaut miles runAvg speedWind from/ knotsBaromVisibWave heightAir tempDewpointWater temp
2018-Jan-19 14:30N 01°12' E 103°40'0 0.0
2018-Jan-19 13:57N 01°12' E 103°40'0 0.3
2018-Jan-19 13:30N 01°12' E 103°40'0 0.1
2018-Jan-19 12:57N 01°12' E 103°41'0 0.1
2018-Jan-19 12:24N 01°12' E 103°41'0 0.1
2018-Jan-19 11:54N 01°12' E 103°41'0 0.0
2018-Jan-19 11:15N 01°12' E 103°41'0 0.0
2018-Jan-19 10:27N 01°12' E 103°41'0 0.1
2018-Jan-19 09:54N 01°12' E 103°41'0 0.0
2018-Jan-19 09:21N 01°12' E 103°41'0 0.0
2018-Jan-19 08:39N 01°12' E 103°41'0 1.0
2018-Jan-19 08:30N 01°12' E 103°41'3 5.1
2018-Jan-19 07:59N 01°12' E 103°38'3 6.9
2018-Jan-19 07:30N 01°12' E 103°35'3 5.0
2018-Jan-19 07:00N 01°15' E 103°36'0 0.1
2018-Jan-19 05:29N 01°15' E 103°36'0 0.1
2018-Jan-19 04:59N 01°15' E 103°36'0 0.0
2018-Jan-19 04:29N 01°15' E 103°36'0 0.1
2018-Jan-19 03:44N 01°15' E 103°36'0 0.0
2018-Jan-19 01:32N 01°15' E 103°36'0 0.0
2018-Jan-19 01:23N 01°15' E 103°36'0 0.1
2018-Jan-19 00:56N 01°15' E 103°36'0 0.1
2018-Jan-18 23:35N 01°15' E 103°36'0 0.2
2018-Jan-18 23:17N 01°15' E 103°36'0 0.2
2018-Jan-18 22:56N 01°15' E 103°36'0 0.1
2018-Jan-18 22:23N 01°15' E 103°35'0 0.1
2018-Jan-18 21:59N 01°15' E 103°35'0 0.1
2018-Jan-18 21:26N 01°15' E 103°35'0 0.1
2018-Jan-18 19:17N 01°15' E 103°36'0 0.2
2018-Jan-18 18:56N 01°15' E 103°36'0 0.0
2018-Jan-18 16:37N 01°15' E 103°36'0 0.1
2018-Jan-18 16:08N 01°15' E 103°36'0 0.1
2018-Jan-18 14:43N 01°15' E 103°35'0 0.2
2018-Jan-18 14:28N 01°15' E 103°35'0 0.1
2018-Jan-18 13:43N 01°15' E 103°35'0 0.3
2018-Jan-18 13:28N 01°15' E 103°36'0 0.1
2018-Jan-18 12:58N 01°15' E 103°36'0 0.1
2018-Jan-18 12:28N 01°15' E 103°36'0 0.1
2018-Jan-18 11:52N 01°15' E 103°36'0 0.2
2018-Jan-18 11:28N 01°15' E 103°36'0 0.2
2018-Jan-18 10:57N 01°15' E 103°36'1 3.3
2018-Jan-18 10:30N 01°13' E 103°36'3 5.8
2018-Jan-18 09:59N 01°12' E 103°39'2 4.2
2018-Jan-18 09:30N 01°14' E 103°40'3 5.9
2018-Jan-18 09:00N 01°17' E 103°40'2 3.2
2018-Jan-18 08:29N 01°18' E 103°41'0 0.0
2018-Jan-18 07:59N 01°18' E 103°41'0 0.0
2018-Jan-18 07:17N 01°18' E 103°41'0 0.0
2018-Jan-18 06:59N 01°18' E 103°41'0 0.0
2018-Jan-18 06:29N 01°18' E 103°41'0 0.0
2018-Jan-18 05:59N 01°18' E 103°41'0 0.0
2018-Jan-18 05:29N 01°18' E 103°41'0 0.0
2018-Jan-18 04:50N 01°18' E 103°41'0 0.0
2018-Jan-18 04:29N 01°18' E 103°41'0 0.0
2018-Jan-18 03:59N 01°18' E 103°41'0 0.0
2018-Jan-18 03:28N 01°18' E 103°41'0 0.0
2018-Jan-18 02:58N 01°18' E 103°41'0 0.0
2018-Jan-18 02:29N 01°18' E 103°41'0 0.0
2018-Jan-18 01:58N 01°18' E 103°41'0 0.0
2018-Jan-18 01:28N 01°18' E 103°41'0 0.0
2018-Jan-18 00:58N 01°18' E 103°41'0 0.0
2018-Jan-17 23:58N 01°18' E 103°41'0 0.0
2018-Jan-17 23:55N 01°18' E 103°41'  
2018-Jan-11 21:21N 01°16' E 104°07'411.4
2018-Jan-11 21:00N 01°15' E 104°03'611.0
2018-Jan-11 20:30N 01°14' E 103°58'611.4
2018-Jan-11 20:00N 01°12' E 103°53'510.1
2018-Jan-11 19:30N 01°10' E 103°48'510.9
2018-Jan-11 19:00N 01°06' E 103°44'611.5
2018-Jan-11 18:30N 01°03' E 103°40'611.7
2018-Jan-11 18:00N 01°05' E 103°35'5 9.7
2018-Jan-11 17:30N 01°10' E 103°34'5 9.5
2018-Jan-11 17:00N 01°12' E 103°38'4 7.4
2018-Jan-11 16:30N 01°14' E 103°41'0 0.6
2018-Jan-11 15:56N 01°14' E 103°41'0 0.0
2018-Jan-11 15:29N 01°14' E 103°41'0 0.0
2018-Jan-11 14:56N 01°14' E 103°41'0 0.0
2018-Jan-11 14:29N 01°14' E 103°41'0 0.0
2018-Jan-11 13:56N 01°14' E 103°41'0 0.0
2018-Jan-11 13:29N 01°14' E 103°41'0 0.0
2018-Jan-11 12:47N 01°14' E 103°41'0 0.0
2018-Jan-11 12:27N 01°14' E 103°41'0 0.0
2018-Jan-11 11:59N 01°14' E 103°41'0 0.0
2018-Jan-11 11:15N 01°14' E 103°41'0 0.0
2018-Jan-11 10:59N 01°14' E 103°41'0 0.0
2018-Jan-11 10:26N 01°14' E 103°41'0 0.0
2018-Jan-11 09:56N 01°14' E 103°41'0 0.0
2018-Jan-11 09:29N 01°14' E 103°41'0 0.0
2018-Jan-11 08:59N 01°14' E 103°41'0 0.0
2018-Jan-11 08:29N 01°14' E 103°41'0 0.0
2018-Jan-11 07:47N 01°14' E 103°41'0 0.0
2018-Jan-11 07:29N 01°14' E 103°41'0 0.0
2018-Jan-11 06:41N 01°14' E 103°41'0 0.0
2018-Jan-11 06:29N 01°14' E 103°41'0 0.0
2018-Jan-11 05:53N 01°14' E 103°41'0 0.0
2018-Jan-11 05:30N 01°14' E 103°41'0 0.0
2018-Jan-11 04:59N 01°14' E 103°41'0 0.0
2018-Jan-11 04:29N 01°14' E 103°41'0 0.0
2018-Jan-11 03:59N 01°14' E 103°41'0 0.0
2018-Jan-11 03:27N 01°14' E 103°41'0 0.0
2018-Jan-11 02:59N 01°14' E 103°41'0 0.0
2018-Jan-11 02:14N 01°14' E 103°41'0 0.0
2018-Jan-11 01:52N 01°14' E 103°41'0 0.0
2018-Jan-11 01:25N 01°14' E 103°41'0 0.0
2018-Jan-11 00:58N 01°14' E 103°41'0 0.0
2018-Jan-11 00:22N 01°14' E 103°41'0 0.0
2018-Jan-10 23:58N 01°14' E 103°41'0 0.0
2018-Jan-10 23:28N 01°14' E 103°41'0 0.0
2018-Jan-10 22:58N 01°14' E 103°41'0 0.0
2018-Jan-10 22:25N 01°14' E 103°41'0 0.0
2018-Jan-10 21:58N 01°14' E 103°41'0 0.0
2018-Jan-10 21:25N 01°14' E 103°41'0 0.0
2018-Jan-10 20:58N 01°14' E 103°41'0 0.0
2018-Jan-10 20:25N 01°14' E 103°41'0 0.0
2018-Jan-10 19:52N 01°14' E 103°41'0 0.0
2018-Jan-10 19:28N 01°14' E 103°41'0 0.0
2018-Jan-10 18:58N 01°14' E 103°41'0 0.0
2018-Jan-10 18:07N 01°14' E 103°41'0 0.3
2018-Jan-10 17:55N 01°14' E 103°41'1 0.9
2018-Jan-10 17:22N 01°13' E 103°41'2 6.3
2018-Jan-10 16:59N 01°12' E 103°39'3 6.1
2018-Jan-10 16:30N 01°11' E 103°42'0 0.2
2018-Jan-10 15:48N 01°11' E 103°42'0 0.1
2018-Jan-10 15:30N 01°11' E 103°42'0 0.1
2018-Jan-10 14:59N 01°11' E 103°42'0 0.1
2018-Jan-10 14:30N 01°11' E 103°42'0 0.2
2018-Jan-10 13:59N 01°11' E 103°42'0 0.0
2018-Jan-10 13:30N 01°11' E 103°42'0 0.0
2018-Jan-10 12:59N 01°11' E 103°42'0 0.1
2018-Jan-10 12:29N 01°11' E 103°42'0 0.1
2018-Jan-10 12:00N 01°11' E 103°42'0 0.1
2018-Jan-10 11:30N 01°11' E 103°42'0 0.1
2018-Jan-10 10:59N 01°11' E 103°42'0 0.0
2018-Jan-10 10:30N 01°11' E 103°42'0 0.0
2018-Jan-10 09:59N 01°11' E 103°42'0 0.0
2018-Jan-10 09:28N 01°11' E 103°42'0 0.0
2018-Jan-10 08:59N 01°11' E 103°42'0 0.0
2018-Jan-10 08:30N 01°11' E 103°42'0 0.0
2018-Jan-10 08:00N 01°11' E 103°42'0 0.1
2018-Jan-10 07:29N 01°11' E 103°42'1 1.8
2018-Jan-10 07:00N 01°11' E 103°41'4 7.4
2018-Jan-10 06:30N 01°12' E 103°38'3 6.4
2018-Jan-10 06:01N 01°13' E 103°35'1 2.0
2018-Jan-10 05:29N 01°13' E 103°34'0 0.7
2018-Jan-10 04:59N 01°13' E 103°34'2 4.7
2018-Jan-10 04:30N 01°12' E 103°36'3 5.7
2018-Jan-10 03:59N 01°12' E 103°39'4 7.8
2018-Jan-10 03:30N 01°15' E 103°41'1 1.1
2018-Jan-10 02:58N 01°16' E 103°41'0 0.1
2018-Jan-10 02:28N 01°16' E 103°41'0 0.1
2018-Jan-10 01:58N 01°16' E 103°41'0 0.0
2018-Jan-10 01:28N 01°16' E 103°41'0 0.0
2018-Jan-10 00:55N 01°16' E 103°41'0 0.1
2018-Jan-10 00:22N 01°16' E 103°41'0 0.1
2018-Jan-09 23:52N 01°16' E 103°41'0 0.0
2018-Jan-09 23:28N 01°16' E 103°41'0 0.0
2018-Jan-09 22:58N 01°16' E 103°41'0 0.0
2018-Jan-09 22:28N 01°16' E 103°41'0 0.0
2018-Jan-09 21:55N 01°16' E 103°41'0 0.0
2018-Jan-09 21:19N 01°16' E 103°41'0 0.0
2018-Jan-09 20:58N 01°16' E 103°41'0 0.0
2018-Jan-09 20:19N 01°16' E 103°41'0 0.2
2018-Jan-09 19:58N 01°16' E 103°41'0 0.1
2018-Jan-09 19:28N 01°16' E 103°41'0 0.1
2018-Jan-09 18:55N 01°16' E 103°41'0 0.1
2018-Jan-09 18:22N 01°16' E 103°41'0 0.0
2018-Jan-09 17:52N 01°16' E 103°41'0 0.2
2018-Jan-09 17:28N 01°16' E 103°41'0 0.1
2018-Jan-09 16:58N 01°16' E 103°41'0 0.0
2018-Jan-09 16:28N 01°16' E 103°41'0 0.0
2018-Jan-09 15:52N 01°16' E 103°41'0 0.0
2018-Jan-09 15:31N 01°16' E 103°41'0 0.0
2018-Jan-09 14:52N 01°16' E 103°41'  
Track history (hours):
 
Tides and Currents Weather Stations Pressure Air Temp Water Temp Dewpoint Dewpoint Depression Visibility Wind Speed Wind Dir Waves Ship Positions

Ocean Stellar

Last reported at 2018-Jan-19 14:30 UTC. Time now 2018-Jan-19 15:20 UTC.
Position N 01°12' E 103°40'.

Length 189 m; draft 8.2 m.

Type: Tanker. MMSI: 563476000.

Date/timePositionNaut miles runAvg speedWind from/ knotsBaromVisibWave heightAir tempDewpointWater temp
2018-Jan-19 14:30N 01°12' E 103°40'0 0.0
2018-Jan-19 13:57N 01°12' E 103°40'0 0.3
2018-Jan-19 13:30N 01°12' E 103°40'0 0.1
2018-Jan-19 12:57N 01°12' E 103°41'0 0.1
2018-Jan-19 12:24N 01°12' E 103°41'0 0.1
2018-Jan-19 11:54N 01°12' E 103°41'0 0.0
2018-Jan-19 11:15N 01°12' E 103°41'0 0.0
2018-Jan-19 10:27N 01°12' E 103°41'0 0.1
2018-Jan-19 09:54N 01°12' E 103°41'0 0.0
2018-Jan-19 09:21N 01°12' E 103°41'0 0.0
2018-Jan-19 08:39N 01°12' E 103°41'0 1.0
2018-Jan-19 08:30N 01°12' E 103°41'3 5.1
2018-Jan-19 07:59N 01°12' E 103°38'3 6.9
2018-Jan-19 07:30N 01°12' E 103°35'3 5.0
2018-Jan-19 07:00N 01°15' E 103°36'0 0.1
2018-Jan-19 05:29N 01°15' E 103°36'0 0.1
2018-Jan-19 04:59N 01°15' E 103°36'0 0.0
2018-Jan-19 04:29N 01°15' E 103°36'0 0.1
2018-Jan-19 03:44N 01°15' E 103°36'0 0.0
2018-Jan-19 01:32N 01°15' E 103°36'0 0.0
2018-Jan-19 01:23N 01°15' E 103°36'0 0.1
2018-Jan-19 00:56N 01°15' E 103°36'0 0.1
2018-Jan-18 23:35N 01°15' E 103°36'0 0.2
2018-Jan-18 23:17N 01°15' E 103°36'0 0.2
2018-Jan-18 22:56N 01°15' E 103°36'0 0.1
2018-Jan-18 22:23N 01°15' E 103°35'0 0.1
2018-Jan-18 21:59N 01°15' E 103°35'0 0.1
2018-Jan-18 21:26N 01°15' E 103°35'0 0.1
2018-Jan-18 19:17N 01°15' E 103°36'0 0.2
2018-Jan-18 18:56N 01°15' E 103°36'0 0.0
2018-Jan-18 16:37N 01°15' E 103°36'0 0.1
2018-Jan-18 16:08N 01°15' E 103°36'0 0.1
2018-Jan-18 14:43N 01°15' E 103°35'0 0.2
2018-Jan-18 14:28N 01°15' E 103°35'0 0.1
2018-Jan-18 13:43N 01°15' E 103°35'0 0.3
2018-Jan-18 13:28N 01°15' E 103°36'0 0.1
2018-Jan-18 12:58N 01°15' E 103°36'0 0.1
2018-Jan-18 12:28N 01°15' E 103°36'0 0.1
2018-Jan-18 11:52N 01°15' E 103°36'0 0.2
2018-Jan-18 11:28N 01°15' E 103°36'0 0.2
2018-Jan-18 10:57N 01°15' E 103°36'1 3.3
2018-Jan-18 10:30N 01°13' E 103°36'3 5.8
2018-Jan-18 09:59N 01°12' E 103°39'2 4.2
2018-Jan-18 09:30N 01°14' E 103°40'3 5.9
2018-Jan-18 09:00N 01°17' E 103°40'2 3.2
2018-Jan-18 08:29N 01°18' E 103°41'0 0.0
2018-Jan-18 07:59N 01°18' E 103°41'0 0.0
2018-Jan-18 07:17N 01°18' E 103°41'0 0.0
2018-Jan-18 06:59N 01°18' E 103°41'0 0.0
2018-Jan-18 06:29N 01°18' E 103°41'0 0.0
2018-Jan-18 05:59N 01°18' E 103°41'0 0.0
2018-Jan-18 05:29N 01°18' E 103°41'0 0.0
2018-Jan-18 04:50N 01°18' E 103°41'0 0.0
2018-Jan-18 04:29N 01°18' E 103°41'0 0.0
2018-Jan-18 03:59N 01°18' E 103°41'0 0.0
2018-Jan-18 03:28N 01°18' E 103°41'0 0.0
2018-Jan-18 02:58N 01°18' E 103°41'0 0.0
2018-Jan-18 02:29N 01°18' E 103°41'0 0.0
2018-Jan-18 01:58N 01°18' E 103°41'0 0.0
2018-Jan-18 01:28N 01°18' E 103°41'0 0.0
2018-Jan-18 00:58N 01°18' E 103°41'0 0.0
2018-Jan-17 23:58N 01°18' E 103°41'0 0.0
2018-Jan-17 23:55N 01°18' E 103°41'  
2018-Jan-11 21:21N 01°16' E 104°07'411.4
2018-Jan-11 21:00N 01°15' E 104°03'611.0
2018-Jan-11 20:30N 01°14' E 103°58'611.4
2018-Jan-11 20:00N 01°12' E 103°53'510.1
2018-Jan-11 19:30N 01°10' E 103°48'510.9
2018-Jan-11 19:00N 01°06' E 103°44'611.5
2018-Jan-11 18:30N 01°03' E 103°40'611.7
2018-Jan-11 18:00N 01°05' E 103°35'5 9.7
2018-Jan-11 17:30N 01°10' E 103°34'5 9.5
2018-Jan-11 17:00N 01°12' E 103°38'4 7.4
2018-Jan-11 16:30N 01°14' E 103°41'0 0.6
2018-Jan-11 15:56N 01°14' E 103°41'0 0.0
2018-Jan-11 15:29N 01°14' E 103°41'0 0.0
2018-Jan-11 14:56N 01°14' E 103°41'0 0.0
2018-Jan-11 14:29N 01°14' E 103°41'0 0.0
2018-Jan-11 13:56N 01°14' E 103°41'0 0.0
2018-Jan-11 13:29N 01°14' E 103°41'0 0.0
2018-Jan-11 12:47N 01°14' E 103°41'0 0.0
2018-Jan-11 12:27N 01°14' E 103°41'0 0.0
2018-Jan-11 11:59N 01°14' E 103°41'0 0.0
2018-Jan-11 11:15N 01°14' E 103°41'0 0.0
2018-Jan-11 10:59N 01°14' E 103°41'0 0.0
2018-Jan-11 10:26N 01°14' E 103°41'0 0.0
2018-Jan-11 09:56N 01°14' E 103°41'0 0.0
2018-Jan-11 09:29N 01°14' E 103°41'0 0.0
2018-Jan-11 08:59N 01°14' E 103°41'0 0.0
2018-Jan-11 08:29N 01°14' E 103°41'0 0.0
2018-Jan-11 07:47N 01°14' E 103°41'0 0.0
2018-Jan-11 07:29N 01°14' E 103°41'0 0.0
2018-Jan-11 06:41N 01°14' E 103°41'0 0.0
2018-Jan-11 06:29N 01°14' E 103°41'0 0.0
2018-Jan-11 05:53N 01°14' E 103°41'0 0.0
2018-Jan-11 05:30N 01°14' E 103°41'0 0.0
2018-Jan-11 04:59N 01°14' E 103°41'0 0.0
2018-Jan-11 04:29N 01°14' E 103°41'0 0.0
2018-Jan-11 03:59N 01°14' E 103°41'0 0.0
2018-Jan-11 03:27N 01°14' E 103°41'0 0.0
2018-Jan-11 02:59N 01°14' E 103°41'0 0.0
2018-Jan-11 02:14N 01°14' E 103°41'0 0.0
2018-Jan-11 01:52N 01°14' E 103°41'0 0.0
2018-Jan-11 01:25N 01°14' E 103°41'0 0.0
2018-Jan-11 00:58N 01°14' E 103°41'0 0.0
2018-Jan-11 00:22N 01°14' E 103°41'0 0.0
2018-Jan-10 23:58N 01°14' E 103°41'0 0.0
2018-Jan-10 23:28N 01°14' E 103°41'0 0.0
2018-Jan-10 22:58N 01°14' E 103°41'0 0.0
2018-Jan-10 22:25N 01°14' E 103°41'0 0.0
2018-Jan-10 21:58N 01°14' E 103°41'0 0.0
2018-Jan-10 21:25N 01°14' E 103°41'0 0.0
2018-Jan-10 20:58N 01°14' E 103°41'0 0.0
2018-Jan-10 20:25N 01°14' E 103°41'0 0.0
2018-Jan-10 19:52N 01°14' E 103°41'0 0.0
2018-Jan-10 19:28N 01°14' E 103°41'0 0.0
2018-Jan-10 18:58N 01°14' E 103°41'0 0.0
2018-Jan-10 18:07N 01°14' E 103°41'0 0.3
2018-Jan-10 17:55N 01°14' E 103°41'1 0.9
2018-Jan-10 17:22N 01°13' E 103°41'2 6.3
2018-Jan-10 16:59N 01°12' E 103°39'3 6.1
2018-Jan-10 16:30N 01°11' E 103°42'0 0.2
2018-Jan-10 15:48N 01°11' E 103°42'0 0.1
2018-Jan-10 15:30N 01°11' E 103°42'0 0.1
2018-Jan-10 14:59N 01°11' E 103°42'0 0.1
2018-Jan-10 14:30N 01°11' E 103°42'0 0.2
2018-Jan-10 13:59N 01°11' E 103°42'0 0.0
2018-Jan-10 13:30N 01°11' E 103°42'0 0.0
2018-Jan-10 12:59N 01°11' E 103°42'0 0.1
2018-Jan-10 12:29N 01°11' E 103°42'0 0.1
2018-Jan-10 12:00N 01°11' E 103°42'0 0.1
2018-Jan-10 11:30N 01°11' E 103°42'0 0.1
2018-Jan-10 10:59N 01°11' E 103°42'0 0.0
2018-Jan-10 10:30N 01°11' E 103°42'0 0.0
2018-Jan-10 09:59N 01°11' E 103°42'0 0.0
2018-Jan-10 09:28N 01°11' E 103°42'0 0.0
2018-Jan-10 08:59N 01°11' E 103°42'0 0.0
2018-Jan-10 08:30N 01°11' E 103°42'0 0.0
2018-Jan-10 08:00N 01°11' E 103°42'0 0.1
2018-Jan-10 07:29N 01°11' E 103°42'1 1.8
2018-Jan-10 07:00N 01°11' E 103°41'4 7.4
2018-Jan-10 06:30N 01°12' E 103°38'3 6.4
2018-Jan-10 06:01N 01°13' E 103°35'1 2.0
2018-Jan-10 05:29N 01°13' E 103°34'0 0.7
2018-Jan-10 04:59N 01°13' E 103°34'2 4.7
2018-Jan-10 04:30N 01°12' E 103°36'3 5.7
2018-Jan-10 03:59N 01°12' E 103°39'4 7.8
2018-Jan-10 03:30N 01°15' E 103°41'1 1.1
2018-Jan-10 02:58N 01°16' E 103°41'0 0.1
2018-Jan-10 02:28N 01°16' E 103°41'0 0.1
2018-Jan-10 01:58N 01°16' E 103°41'0 0.0
2018-Jan-10 01:28N 01°16' E 103°41'0 0.0
2018-Jan-10 00:55N 01°16' E 103°41'0 0.1
2018-Jan-10 00:22N 01°16' E 103°41'0 0.1
2018-Jan-09 23:52N 01°16' E 103°41'0 0.0
2018-Jan-09 23:28N 01°16' E 103°41'0 0.0
2018-Jan-09 22:58N 01°16' E 103°41'0 0.0
2018-Jan-09 22:28N 01°16' E 103°41'0 0.0
2018-Jan-09 21:55N 01°16' E 103°41'0 0.0
2018-Jan-09 21:19N 01°16' E 103°41'0 0.0
2018-Jan-09 20:58N 01°16' E 103°41'0 0.0
2018-Jan-09 20:19N 01°16' E 103°41'0 0.2
2018-Jan-09 19:58N 01°16' E 103°41'0 0.1
2018-Jan-09 19:28N 01°16' E 103°41'0 0.1
2018-Jan-09 18:55N 01°16' E 103°41'0 0.1
2018-Jan-09 18:22N 01°16' E 103°41'0 0.0
2018-Jan-09 17:52N 01°16' E 103°41'0 0.2
2018-Jan-09 17:28N 01°16' E 103°41'0 0.1
2018-Jan-09 16:58N 01°16' E 103°41'0 0.0
2018-Jan-09 16:28N 01°16' E 103°41'0 0.0
2018-Jan-09 15:52N 01°16' E 103°41'0 0.0
2018-Jan-09 15:31N 01°16' E 103°41'0 0.0
2018-Jan-09 14:52N 01°16' E 103°41'  

Dump ship's entire track history